Locust, Iowa
Current Conditions -  °F | °C
As of 5:15 PM on Sunday 21 Dec 2014 (Local Time) from KDEH Reporting Station
Haze Haze  
Wind Chill: 28°   Ceiling: 500
Heat Index: 36°   Visibility: 2mi
Dew Point: 36°   Wind: 12mph
Humidity: 100%   Direction: 170°S
Pressure: 29.85"   Gusts: 18mph
Location:  43.3626°N, 91.8164°W
Report Text: KDEH 212315Z AUTO 17010G16KT 2SM BR OVC005 02/02 A2985 RMK AO2
Loading
Personal Weather Stations






























Interactive Weather Map New forecast layout! Learn more

10-Day Weather Forecast

Advertisements
Track Severe Weather on mobile